Time;durP1;ratioP1;P1;durP2;ratioP2;P2;SDS_P1;SDS_P2;PMS_P1;PMS_P2;Temp;Humidity;BMP_temperature;BMP_pressure;BME280_temperature;BME280_humidity;BME280_pressure;Samples;Min_cycle;Max_cycle;Signal;HPM_P1;HPM_P2
2021/12/01 03:06:44;;;;;;;;;165.25;165.25;;;;;;;;6186212;23;8741;-82
2021/12/01 03:24:37;;;;;;;;;189.40;189.40;;;;;;;;6133225;23;8737;-82
2021/12/01 03:55:03;;;;;;;;;271.40;271.00;;;;;;;;6163518;23;8742;-81
2021/12/01 04:07:03;;;;;;;;;281.17;280.50;;;;;;;;6162642;23;8755;-83
2021/12/01 05:05:25;;;;;;;;;224.40;224.40;;;;;;;;6382510;22;8796;-85
2021/12/01 05:08:25;;;;;;;;;;;;;;;;;;;;;
2021/12/01 05:14:25;;;;;;;;;;;;;;;;;;;;;
2021/12/01 05:17:25;;;;;;;;;;;;;;;;;;;;;
2021/12/01 05:22:44;;;;;;;;;223.67;223.67;;;;;;;;6382911;22;8742;-84
2021/12/01 05:28:54;;;;;;;;;198.60;198.60;;;;;;;;6384087;22;8750;-82
2021/12/01 05:34:51;;;;;;;;;155.50;155.50;;;;;;;;6349524;22;8715;-84
2021/12/01 05:37:58;;;;;;;;;163.60;163.60;;;;;;;;6335039;22;9630;-84
2021/12/01 05:40:37;;;;;;;;;142.00;142.00;;;;;;;;6344302;22;9032;-83
2021/12/01 05:43:03;;;;;;;;;167.83;167.83;;;;;;;;6351629;22;8742;-82
2021/12/01 05:45:57;;;;;;;;;135.80;135.80;;;;;;;;6383605;22;9999;-83
2021/12/01 05:48:39;;;;;;;;;171.50;171.50;;;;;;;;6383873;22;8758;-83
2021/12/01 05:51:22;;;;;;;;;180.00;180.00;;;;;;;;6383910;22;9583;-83
2021/12/01 05:53:52;;;;;;;;;152.83;152.83;;;;;;;;6383446;22;8815;-83
2021/12/01 05:56:17;;;;;;;;;159.00;159.00;;;;;;;;6384079;22;8823;-82
2021/12/01 06:01:49;;;;;;;;;98.40;94.00;;;;;;;;6371494;22;9628;-83
2021/12/01 06:04:27;;;;;;;;;80.25;71.50;;;;;;;;6381486;22;8890;-82
2021/12/01 06:06:57;;;;;;;;;75.75;65.75;;;;;;;;6383629;22;8729;-82
2021/12/01 06:09:30;;;;;;;;;97.80;97.00;;;;;;;;6381464;22;8738;-81
2021/12/01 06:12:24;;;;;;;;;46.25;41.50;;;;;;;;6381976;22;9201;-82
2021/12/01 06:14:54;;;;;;;;;83.25;75.00;;;;;;;;6377175;22;8790;-82
2021/12/01 06:20:06;;;;;;;;;51.50;45.50;;;;;;;;6371651;22;8831;-82
2021/12/01 06:29:03;;;;;;;;;6.00;6.00;;;;;;;;6364590;22;8843;-82
2021/12/01 06:34:22;;;;;;;;;17.00;17.00;;;;;;;;6371226;22;8726;-82
2021/12/01 06:37:18;;;;;;;;;;;;;;;;;;;;;
2021/12/01 07:01:00;;;;;;;;;0.00;0.00;;;;;;;;6255536;22;8717;-80
2021/12/01 07:19:38;;;;;;;;;0.00;0.00;;;;;;;;6194850;23;8729;-85
2021/12/01 07:31:38;;;;;;;;;0.00;0.00;;;;;;;;6198476;23;8755;-83
2021/12/01 07:34:31;;;;;;;;;3.00;3.00;;;;;;;;6169487;23;8853;-81
2021/12/01 07:37:15;;;;;;;;;0.00;0.00;;;;;;;;6199933;23;8775;-81
2021/12/01 07:39:45;;;;;;;;;0.00;0.00;;;;;;;;6287653;22;8732;-82
2021/12/01 07:42:14;;;;;;;;;8.75;8.75;;;;;;;;6383201;22;8793;-80
2021/12/01 07:48:13;;;;;;;;;0.00;0.00;;;;;;;;6273074;22;8821;-82
2021/12/01 07:53:24;;;;;;;;;0.00;0.00;;;;;;;;6224564;23;9679;-81
2021/12/01 07:55:59;;;;;;;;;;;;;;;;;;;;;
2021/12/01 07:58:45;;;;;;;;;0.00;0.00;;;;;;;;6383368;22;37137;-82
2021/12/01 08:01:28;;;;;;;;;0.00;0.00;;;;;;;;6383798;22;9863;-81
2021/12/01 08:04:03;;;;;;;;;0.00;0.00;;;;;;;;6385052;22;8713;-81
2021/12/01 08:06:43;;;;;;;;;;;;;;;;;;;;;
2021/12/01 08:09:28;;;;;;;;;0.00;0.00;;;;;;;;6413937;22;36295;-81
2021/12/01 08:11:56;;;;;;;;;0.00;0.00;;;;;;;;6387838;22;8825;-80
2021/12/01 08:14:21;;;;;;;;;0.00;0.00;;;;;;;;6415450;22;8730;-78
2021/12/01 08:16:50;;;;;;;;;0.00;0.00;;;;;;;;6417017;22;8772;-80
2021/12/01 08:19:28;;;;;;;;;;;;;;;;;;;;;
2021/12/01 08:21:54;;;;;;;;;0.00;0.00;;;;;;;;6415857;22;36046;-78
2021/12/01 08:24:19;;;;;;;;;0.00;0.00;;;;;;;;6416598;22;8802;-81
2021/12/01 08:30:19;;;;;;;;;0.00;0.00;;;;;;;;6285854;22;8734;-81
2021/12/01 08:32:50;;;;;;;;;0.00;0.00;;;;;;;;6287776;22;8769;-80
2021/12/01 08:45:29;;;;;;;;;0.00;0.00;;;;;;;;6141281;23;8933;-81
2021/12/01 08:48:52;;;;;;;;;;;;;;;;;;;;;
2021/12/01 08:54:55;;;;;;;;;0.00;0.00;;;;;;;;5933635;24;8916;-81
2021/12/01 08:58:14;;;;;;;;;;;;;;;;;;;;;
2021/12/01 09:00:33;;;;;;;;;0.00;0.00;;;;;;;;5989639;23;8790;-80
2021/12/01 09:02:58;;;;;;;;;0.00;0.00;;;;;;;;6082500;23;8753;-82
2021/12/01 09:05:31;;;;;;;;;0.00;0.00;;;;;;;;6134583;23;8769;-82
2021/12/01 09:08:00;;;;;;;;;0.00;0.00;;;;;;;;6167816;23;8880;-80
2021/12/01 09:10:28;;;;;;;;;0.00;0.00;;;;;;;;6169833;23;8789;-80
2021/12/01 09:12:58;;;;;;;;;0.00;0.00;;;;;;;;6195462;23;8726;-81
2021/12/01 09:15:53;;;;;;;;;0.00;0.00;;;;;;;;6195529;23;8777;-82
2021/12/01 09:18:19;;;;;;;;;0.00;0.00;;;;;;;;6342236;22;8721;-80
2021/12/01 09:20:45;;;;;;;;;0.00;0.00;;;;;;;;6416398;22;8755;-79
2021/12/01 09:26:21;;;;;;;;;0.00;0.00;;;;;;;;6414632;22;8748;-80
2021/12/01 09:28:49;;;;;;;;;0.00;0.00;;;;;;;;6415992;22;8681;-81
2021/12/01 09:31:20;;;;;;;;;0.00;0.00;;;;;;;;6416507;22;8741;-80
2021/12/01 09:34:22;;;;;;;;;;;;;;;;;;;;;
2021/12/01 09:36:48;;;;;;;;;0.00;0.00;;;;;;;;6414086;22;36488;-81
2021/12/01 09:39:13;;;;;;;;;0.00;0.00;;;;;;;;6416280;22;8848;-80
2021/12/01 09:41:39;;;;;;;;;0.00;0.00;;;;;;;;6416184;22;8953;-79
2021/12/01 09:44:04;;;;;;;;;0.00;0.00;;;;;;;;6416823;22;8791;-81
2021/12/01 09:46:30;;;;;;;;;0.00;0.00;;;;;;;;6415339;22;9472;-80
2021/12/01 09:48:57;;;;;;;;;0.00;0.00;;;;;;;;6416960;22;8849;-80
2021/12/01 09:51:22;;;;;;;;;0.00;0.00;;;;;;;;6387576;22;9583;-80
2021/12/01 09:53:48;;;;;;;;;0.00;0.00;;;;;;;;6416252;22;8833;-81
2021/12/01 09:56:15;;;;;;;;;0.00;0.00;;;;;;;;6387481;22;8854;-80
2021/12/01 09:58:42;;;;;;;;;0.00;0.00;;;;;;;;6387064;22;8741;-80
2021/12/01 10:01:12;;;;;;;;;0.00;0.00;;;;;;;;6387686;22;8741;-79
2021/12/01 10:03:39;;;;;;;;;0.00;0.00;;;;;;;;6416032;22;8717;-80
2021/12/01 10:06:15;;;;;;;;;0.00;0.00;;;;;;;;6382154;22;8892;-79
2021/12/01 10:08:44;;;;;;;;;0.00;0.00;;;;;;;;6383892;22;8790;-79
2021/12/01 10:11:11;;;;;;;;;0.00;0.00;;;;;;;;6384380;22;8821;-78
2021/12/01 10:13:49;;;;;;;;;0.00;0.00;;;;;;;;6384244;22;8750;-81
2021/12/01 10:16:16;;;;;;;;;0.00;0.00;;;;;;;;6381497;22;9589;-79
2021/12/01 10:18:43;;;;;;;;;1.50;1.50;;;;;;;;6384362;22;8845;-80
2021/12/01 10:21:13;;;;;;;;;0.00;0.00;;;;;;;;6382640;22;8860;-80
2021/12/01 10:23:52;;;;;;;;;;;;;;;;;;;;;
2021/12/01 10:26:35;;;;;;;;;0.00;0.00;;;;;;;;6383179;22;36558;-80
2021/12/01 10:29:05;;;;;;;;;0.00;0.00;;;;;;;;6384648;22;8781;-80
2021/12/01 10:31:38;;;;;;;;;0.00;0.00;;;;;;;;6381871;22;8750;-82
2021/12/01 10:34:21;;;;;;;;;0.00;0.00;;;;;;;;6384153;22;8934;-82
2021/12/01 10:36:49;;;;;;;;;0.00;0.00;;;;;;;;6383290;22;8706;-80
2021/12/01 10:39:14;;;;;;;;;0.00;0.00;;;;;;;;6384007;22;8735;-80
2021/12/01 10:41:42;;;;;;;;;0.00;0.00;;;;;;;;6381899;22;8796;-80
2021/12/01 10:44:11;;;;;;;;;3.00;3.00;;;;;;;;6383897;22;8758;-83
2021/12/01 10:46:46;;;;;;;;;0.00;0.00;;;;;;;;6383168;22;8718;-82
2021/12/01 10:49:11;;;;;;;;;0.00;0.00;;;;;;;;6384364;22;8743;-83
2021/12/01 10:51:38;;;;;;;;;0.00;0.00;;;;;;;;6381727;22;8793;-81
2021/12/01 10:54:05;;;;;;;;;0.00;0.00;;;;;;;;6383890;22;8706;-81
2021/12/01 10:56:30;;;;;;;;;0.00;0.00;;;;;;;;6381417;22;8796;-81
2021/12/01 10:59:08;;;;;;;;;0.00;0.00;;;;;;;;6384546;22;8786;-81
2021/12/01 11:01:37;;;;;;;;;0.00;0.00;;;;;;;;6383773;22;8777;-81
2021/12/01 11:04:05;;;;;;;;;0.00;0.00;;;;;;;;6384161;22;8738;-81
2021/12/01 11:06:37;;;;;;;;;0.00;0.00;;;;;;;;6380996;22;8762;-81
2021/12/01 11:09:07;;;;;;;;;0.00;0.00;;;;;;;;6383777;22;8784;-82
2021/12/01 11:11:44;;;;;;;;;0.00;0.00;;;;;;;;6381773;22;8747;-81
2021/12/01 11:14:18;;;;;;;;;1.50;1.50;;;;;;;;6384100;22;8727;-81
2021/12/01 11:16:47;;;;;;;;;0.00;0.00;;;;;;;;6381775;22;8750;-81
2021/12/01 11:19:30;;;;;;;;;0.00;0.00;;;;;;;;6383546;22;8770;-81
2021/12/01 11:21:58;;;;;;;;;0.00;0.00;;;;;;;;6385362;22;8719;-81
2021/12/01 11:24:26;;;;;;;;;0.00;0.00;;;;;;;;6381907;22;8750;-82
2021/12/01 11:26:51;;;;;;;;;0.00;0.00;;;;;;;;6384310;22;8935;-80
2021/12/01 11:29:16;;;;;;;;;0.00;0.00;;;;;;;;6384152;22;8762;-81
2021/12/01 11:31:43;;;;;;;;;0.00;0.00;;;;;;;;6381818;22;8849;-81
2021/12/01 11:34:11;;;;;;;;;0.00;0.00;;;;;;;;6384175;22;8737;-81
2021/12/01 11:36:41;;;;;;;;;0.00;0.00;;;;;;;;6383609;22;8707;-81
2021/12/01 11:39:10;;;;;;;;;0.00;0.00;;;;;;;;6381435;22;8755;-81
2021/12/01 11:41:38;;;;;;;;;0.00;0.00;;;;;;;;6383564;22;8726;-80
2021/12/01 11:44:04;;;;;;;;;0.00;0.00;;;;;;;;6383243;22;8811;-81
2021/12/01 11:46:32;;;;;;;;;0.00;0.00;;;;;;;;6383577;22;8870;-80
2021/12/01 11:48:59;;;;;;;;;0.00;0.00;;;;;;;;6382043;22;8823;-80
2021/12/01 11:51:25;;;;;;;;;0.00;0.00;;;;;;;;6381094;22;8774;-80
2021/12/01 11:53:52;;;;;;;;;0.00;0.00;;;;;;;;6381560;22;8751;-80
2021/12/01 11:56:17;;;;;;;;;8.75;8.75;;;;;;;;6381373;22;8743;-81
2021/12/01 11:58:43;;;;;;;;;0.00;0.00;;;;;;;;6383694;22;8766;-80
2021/12/01 12:01:20;;;;;;;;;0.00;0.00;;;;;;;;6383781;22;8750;-80
2021/12/01 12:03:54;;;;;;;;;0.00;0.00;;;;;;;;6383591;22;8730;-80
2021/12/01 12:06:20;;;;;;;;;0.00;0.00;;;;;;;;6394586;22;8756;-79
2021/12/01 12:08:54;;;;;;;;;0.50;0.50;;;;;;;;6415229;22;8788;-80
2021/12/01 12:11:38;;;;;;;;;0.00;0.00;;;;;;;;6415394;22;9603;-79
2021/12/01 12:14:05;;;;;;;;;0.00;0.00;;;;;;;;6387004;22;8753;-79
2021/12/01 12:16:30;;;;;;;;;0.00;0.00;;;;;;;;6386337;22;8847;-78
2021/12/01 12:18:57;;;;;;;;;0.00;0.00;;;;;;;;6387186;22;8808;-79
2021/12/01 12:21:48;;;;;;;;;0.00;0.00;;;;;;;;6386492;22;8749;-78
2021/12/01 12:24:16;;;;;;;;;0.00;0.00;;;;;;;;6414008;22;8836;-79
2021/12/01 12:26:44;;;;;;;;;0.00;0.00;;;;;;;;6386528;22;8910;-79
2021/12/01 12:29:13;;;;;;;;;0.00;0.00;;;;;;;;6416581;22;8760;-78
2021/12/01 12:31:39;;;;;;;;;0.00;0.00;;;;;;;;6386258;22;8732;-78
2021/12/01 12:34:08;;;;;;;;;0.00;0.00;;;;;;;;6386205;22;8826;-78
2021/12/01 12:36:39;;;;;;;;;4.50;4.50;;;;;;;;6411862;22;9594;-77
2021/12/01 12:39:15;;;;;;;;;0.00;0.00;;;;;;;;6415399;22;9709;-78
2021/12/01 12:42:05;;;;;;;;;0.00;0.00;;;;;;;;6416637;22;9659;-81
2021/12/01 12:44:32;;;;;;;;;2.33;2.33;;;;;;;;6415863;22;8773;-79
2021/12/01 12:47:09;;;;;;;;;0.00;0.00;;;;;;;;6415604;22;11439;-82
2021/12/01 12:49:35;;;;;;;;;0.00;0.00;;;;;;;;6416540;22;8767;-80
2021/12/01 12:52:21;;;;;;;;;0.00;0.00;;;;;;;;6417481;22;8710;-79
2021/12/01 12:54:46;;;;;;;;;0.00;0.00;;;;;;;;6415861;22;8729;-80
2021/12/01 12:57:13;;;;;;;;;0.00;0.00;;;;;;;;6387204;22;8775;-79
2021/12/01 12:59:39;;;;;;;;;0.00;0.00;;;;;;;;6416696;22;8790;-79
2021/12/01 13:02:04;;;;;;;;;0.50;0.50;;;;;;;;6417397;22;8780;-79
2021/12/01 13:07:28;;;;;;;;;1.25;1.25;;;;;;;;6416290;22;8791;-79
2021/12/01 13:10:12;;;;;;;;;1.00;1.00;;;;;;;;6416763;22;8749;-79
2021/12/01 13:12:48;;;;;;;;;100.50;98.00;;;;;;;;6387384;22;8889;-80
2021/12/01 13:15:40;;;;;;;;;93.25;92.25;;;;;;;;6415095;22;8729;-81
2021/12/01 13:18:07;;;;;;;;;118.50;117.50;;;;;;;;6415476;22;8738;-81
2021/12/01 13:20:37;;;;;;;;;30.75;27.75;;;;;;;;6416266;22;11604;-79
2021/12/01 13:23:26;;;;;;;;;11.00;10.40;;;;;;;;6388170;22;8764;-79
2021/12/01 13:25:57;;;;;;;;;122.80;122.80;;;;;;;;6406932;22;8741;-79
2021/12/01 13:28:32;;;;;;;;;62.00;51.75;;;;;;;;6416896;22;8764;-79
2021/12/01 13:30:58;;;;;;;;;73.60;65.20;;;;;;;;6416940;22;8741;-79
2021/12/01 13:33:24;;;;;;;;;1.75;1.75;;;;;;;;6417035;22;8749;-79
2021/12/01 13:35:50;;;;;;;;;0.00;0.00;;;;;;;;6387654;22;8890;-78
2021/12/01 13:38:26;;;;;;;;;0.00;0.00;;;;;;;;6417215;22;8737;-79
2021/12/01 13:40:51;;;;;;;;;95.00;91.00;;;;;;;;6387673;22;8748;-80
2021/12/01 13:43:20;;;;;;;;;119.00;119.00;;;;;;;;6416384;22;8769;-79
2021/12/01 13:45:56;;;;;;;;;111.60;111.20;;;;;;;;6386843;22;8872;-82
2021/12/01 13:48:21;;;;;;;;;122.80;122.80;;;;;;;;6385334;22;8768;-79
2021/12/01 13:50:47;;;;;;;;;128.20;128.20;;;;;;;;6414616;22;8757;-79
2021/12/01 13:53:12;;;;;;;;;126.20;126.20;;;;;;;;6415859;22;8814;-79
2021/12/01 13:55:40;;;;;;;;;121.80;121.80;;;;;;;;6415488;22;8753;-79
2021/12/01 13:58:18;;;;;;;;;120.00;120.00;;;;;;;;6415919;22;8737;-79
2021/12/01 14:00:51;;;;;;;;;128.40;128.40;;;;;;;;6415358;22;11522;-77
2021/12/01 14:03:18;;;;;;;;;117.80;117.80;;;;;;;;6415735;22;8737;-78
2021/12/01 14:05:46;;;;;;;;;0.00;0.00;;;;;;;;6415760;22;8746;-78
2021/12/01 14:08:17;;;;;;;;;0.00;0.00;;;;;;;;6416110;22;8773;-78
2021/12/01 14:10:43;;;;;;;;;138.60;138.60;;;;;;;;6415418;22;8753;-78
2021/12/01 14:13:08;;;;;;;;;5.75;5.75;;;;;;;;6416719;22;8768;-78
2021/12/01 14:15:37;;;;;;;;;0.50;0.50;;;;;;;;6416585;22;9561;-77
2021/12/01 14:18:03;;;;;;;;;69.20;57.20;;;;;;;;6416233;22;8753;-77
2021/12/01 14:20:29;;;;;;;;;18.25;17.75;;;;;;;;6416189;22;8797;-77
2021/12/01 14:22:55;;;;;;;;;24.00;22.75;;;;;;;;6416197;22;8822;-77
2021/12/01 14:25:21;;;;;;;;;0.00;0.00;;;;;;;;6415986;22;11468;-78
2021/12/01 14:27:49;;;;;;;;;0.00;0.00;;;;;;;;6415983;22;8888;-78
2021/12/01 14:30:17;;;;;;;;;3.75;3.75;;;;;;;;6387500;22;9635;-78
2021/12/01 14:32:43;;;;;;;;;8.25;8.25;;;;;;;;6416339;22;8725;-77
2021/12/01 14:35:08;;;;;;;;;0.00;0.00;;;;;;;;6416657;22;8841;-77
2021/12/01 14:37:35;;;;;;;;;5.75;5.75;;;;;;;;6416110;22;8851;-78
2021/12/01 14:40:11;;;;;;;;;0.25;0.25;;;;;;;;6416364;22;8737;-78
2021/12/01 14:42:40;;;;;;;;;57.80;50.60;;;;;;;;6415918;22;8737;-77
2021/12/01 14:45:07;;;;;;;;;67.60;60.00;;;;;;;;6415796;22;8713;-77
2021/12/01 14:47:33;;;;;;;;;97.40;93.20;;;;;;;;6387245;22;8761;-77
2021/12/01 14:49:59;;;;;;;;;213.17;213.17;;;;;;;;6415208;22;12391;-78
2021/12/01 14:52:29;;;;;;;;;170.83;170.83;;;;;;;;6415058;22;8753;-78
2021/12/01 14:55:03;;;;;;;;;275.83;275.83;;;;;;;;6414522;22;8717;-78
2021/12/01 14:57:34;;;;;;;;;425.43;424.29;;;;;;;;6414185;22;8803;-78
2021/12/01 15:00:00;;;;;;;;;395.29;395.29;;;;;;;;6414589;22;8810;-78
2021/12/01 15:02:26;;;;;;;;;328.50;327.17;;;;;;;;6414058;22;8752;-78
2021/12/01 15:05:02;;;;;;;;;283.60;283.40;;;;;;;;6415413;22;8761;-78
2021/12/01 15:07:28;;;;;;;;;270.57;270.29;;;;;;;;6414034;22;8781;-78
2021/12/01 15:09:53;;;;;;;;;256.00;256.00;;;;;;;;6386144;22;8765;-78
2021/12/01 15:12:29;;;;;;;;;235.83;234.67;;;;;;;;6414995;22;8744;-78
2021/12/01 15:14:54;;;;;;;;;266.20;266.20;;;;;;;;6415237;22;8767;-77
2021/12/01 15:17:20;;;;;;;;;268.20;268.00;;;;;;;;6415104;22;8749;-78
2021/12/01 15:20:13;;;;;;;;;237.60;237.60;;;;;;;;6416954;22;8829;-78
2021/12/01 15:25:48;;;;;;;;;225.83;225.83;;;;;;;;6350772;22;12546;-80
2021/12/01 15:28:14;;;;;;;;;230.33;229.00;;;;;;;;6385697;22;8930;-80
2021/12/01 15:30:41;;;;;;;;;253.00;253.00;;;;;;;;6414877;22;8773;-79
2021/12/01 15:35:54;;;;;;;;;277.83;277.83;;;;;;;;6362579;22;8737;-77
2021/12/01 15:38:20;;;;;;;;;278.80;278.40;;;;;;;;6414563;22;8804;-79
2021/12/01 15:40:45;;;;;;;;;248.40;248.40;;;;;;;;6414542;22;8779;-77
2021/12/01 15:43:11;;;;;;;;;239.50;239.50;;;;;;;;6384807;22;8764;-78
2021/12/01 15:45:37;;;;;;;;;261.40;261.40;;;;;;;;6414496;22;8853;-78
2021/12/01 15:48:02;;;;;;;;;309.57;308.14;;;;;;;;6385275;22;8998;-78
2021/12/01 15:50:28;;;;;;;;;320.83;320.83;;;;;;;;6413878;22;8772;-78
2021/12/01 15:52:54;;;;;;;;;304.40;302.60;;;;;;;;6384941;22;8784;-77
2021/12/01 15:55:21;;;;;;;;;283.60;283.60;;;;;;;;6412889;22;8733;-78
2021/12/01 15:57:46;;;;;;;;;272.00;269.83;;;;;;;;6413940;22;8821;-77
2021/12/01 16:00:14;;;;;;;;;218.40;217.80;;;;;;;;6413872;22;8769;-78
2021/12/01 16:02:40;;;;;;;;;214.00;213.20;;;;;;;;6414412;22;8701;-77
2021/12/01 16:05:07;;;;;;;;;173.75;173.75;;;;;;;;6414925;22;9465;-78
2021/12/01 16:07:32;;;;;;;;;180.40;180.40;;;;;;;;6385091;22;9649;-76
2021/12/01 16:09:58;;;;;;;;;165.33;165.33;;;;;;;;6414718;22;8800;-77
2021/12/01 16:12:24;;;;;;;;;190.50;190.33;;;;;;;;6414634;22;8737;-77
2021/12/01 16:14:49;;;;;;;;;169.60;169.60;;;;;;;;6416212;22;8784;-77
2021/12/01 16:17:15;;;;;;;;;174.00;172.25;;;;;;;;6416374;22;8796;-77
2021/12/01 16:19:40;;;;;;;;;207.25;206.75;;;;;;;;6415771;22;8793;-77
2021/12/01 16:22:06;;;;;;;;;230.40;230.20;;;;;;;;6416012;22;8767;-77
2021/12/01 16:24:31;;;;;;;;;234.20;234.20;;;;;;;;6415222;22;8753;-77
2021/12/01 16:26:56;;;;;;;;;242.00;241.75;;;;;;;;6416430;22;8781;-77
2021/12/01 16:29:24;;;;;;;;;185.00;185.00;;;;;;;;6416150;22;8764;-77
2021/12/01 16:31:50;;;;;;;;;172.00;171.40;;;;;;;;6416144;22;8713;-77
2021/12/01 16:34:15;;;;;;;;;178.60;177.20;;;;;;;;6387261;22;8744;-77
2021/12/01 16:36:41;;;;;;;;;186.00;185.20;;;;;;;;6387114;22;8805;-77
2021/12/01 16:39:07;;;;;;;;;174.60;174.60;;;;;;;;6387051;22;8786;-77
2021/12/01 16:41:33;;;;;;;;;183.60;182.00;;;;;;;;6415999;22;8756;-77
2021/12/01 16:43:58;;;;;;;;;182.50;182.00;;;;;;;;6416231;22;8733;-77
2021/12/01 16:46:24;;;;;;;;;160.50;160.50;;;;;;;;6386915;22;8833;-77
2021/12/01 16:48:50;;;;;;;;;179.00;179.00;;;;;;;;6416361;22;8795;-77
2021/12/01 16:51:20;;;;;;;;;148.67;147.33;;;;;;;;6416162;22;8830;-76
2021/12/01 16:53:46;;;;;;;;;170.00;169.40;;;;;;;;6415272;22;8859;-77
2021/12/01 16:56:11;;;;;;;;;166.40;166.20;;;;;;;;6415748;22;11543;-77
2021/12/01 16:58:37;;;;;;;;;155.80;155.00;;;;;;;;6415873;22;8756;-77
2021/12/01 17:01:03;;;;;;;;;127.80;126.80;;;;;;;;6416587;22;8759;-77
2021/12/01 17:03:33;;;;;;;;;155.50;155.50;;;;;;;;6415681;22;9484;-77
2021/12/01 17:06:06;;;;;;;;;148.33;148.33;;;;;;;;6414575;22;8745;-77
2021/12/01 17:08:42;;;;;;;;;171.20;170.80;;;;;;;;6415246;22;8776;-77
2021/12/01 17:11:10;;;;;;;;;138.33;137.17;;;;;;;;6416387;22;8755;-76
2021/12/01 17:13:36;;;;;;;;;131.00;129.83;;;;;;;;6416105;22;8819;-76
2021/12/01 17:16:02;;;;;;;;;145.25;144.25;;;;;;;;6416071;22;8756;-78
2021/12/01 17:18:28;;;;;;;;;134.80;134.80;;;;;;;;6414687;22;8832;-77
2021/12/01 17:20:55;;;;;;;;;136.00;135.00;;;;;;;;6414345;22;8743;-77
2021/12/01 17:23:21;;;;;;;;;131.67;131.67;;;;;;;;6415004;22;8723;-76
2021/12/01 17:25:46;;;;;;;;;128.00;126.40;;;;;;;;6386607;22;8914;-76
2021/12/01 17:28:12;;;;;;;;;113.25;112.00;;;;;;;;6416031;22;11535;-77
2021/12/01 17:30:48;;;;;;;;;123.75;121.50;;;;;;;;6386496;22;8749;-77
2021/12/01 17:33:14;;;;;;;;;121.60;121.60;;;;;;;;6415978;22;9110;-77
2021/12/01 17:35:39;;;;;;;;;134.50;132.83;;;;;;;;6415560;22;8783;-76
2021/12/01 17:38:05;;;;;;;;;119.80;119.40;;;;;;;;6386568;22;8796;-76
2021/12/01 17:40:31;;;;;;;;;121.00;119.60;;;;;;;;6414932;22;8763;-77
2021/12/01 17:42:56;;;;;;;;;121.40;119.40;;;;;;;;6387046;22;8843;-77
2021/12/01 17:45:21;;;;;;;;;124.80;123.40;;;;;;;;6387215;22;8792;-77
2021/12/01 17:47:47;;;;;;;;;121.00;118.67;;;;;;;;6415738;22;8769;-77
2021/12/01 17:50:14;;;;;;;;;119.20;119.20;;;;;;;;6416167;22;8767;-76
2021/12/01 17:52:42;;;;;;;;;117.20;116.20;;;;;;;;6416193;22;8725;-77
2021/12/01 17:55:08;;;;;;;;;116.00;115.40;;;;;;;;6387366;22;8791;-76
2021/12/01 17:57:33;;;;;;;;;124.40;123.40;;;;;;;;6416028;22;8744;-77
2021/12/01 18:00:00;;;;;;;;;123.00;123.00;;;;;;;;6416727;22;8784;-77
2021/12/01 18:02:26;;;;;;;;;119.00;119.00;;;;;;;;6414364;22;8841;-79
2021/12/01 18:04:52;;;;;;;;;109.60;109.00;;;;;;;;6416284;22;8921;-79
2021/12/01 18:07:17;;;;;;;;;105.20;105.20;;;;;;;;6415303;22;8808;-77
2021/12/01 18:09:43;;;;;;;;;119.50;119.50;;;;;;;;6415738;22;8749;-77
2021/12/01 18:12:08;;;;;;;;;115.20;115.00;;;;;;;;6416195;22;8841;-77
2021/12/01 18:14:34;;;;;;;;;153.20;153.00;;;;;;;;6415579;22;9472;-77
2021/12/01 18:17:00;;;;;;;;;126.60;125.60;;;;;;;;6416056;22;8712;-77
2021/12/01 18:19:27;;;;;;;;;153.20;150.80;;;;;;;;6415803;22;8837;-77
2021/12/01 18:21:53;;;;;;;;;133.60;131.00;;;;;;;;6415375;22;8729;-77
2021/12/01 18:24:18;;;;;;;;;165.00;165.00;;;;;;;;6386893;22;8749;-77
2021/12/01 18:26:43;;;;;;;;;115.50;114.50;;;;;;;;6415941;22;8852;-77
2021/12/01 18:29:11;;;;;;;;;120.50;119.25;;;;;;;;6387116;22;8872;-77
2021/12/01 18:31:37;;;;;;;;;118.75;118.75;;;;;;;;6416088;22;8725;-79
2021/12/01 18:34:03;;;;;;;;;127.17;126.50;;;;;;;;6415842;22;8737;-77
2021/12/01 18:36:28;;;;;;;;;127.00;124.00;;;;;;;;6414606;22;8744;-77
2021/12/01 18:38:54;;;;;;;;;127.60;126.60;;;;;;;;6415615;22;8777;-77
2021/12/01 18:41:20;;;;;;;;;135.50;131.25;;;;;;;;6415999;22;8843;-77
2021/12/01 18:43:46;;;;;;;;;131.83;130.00;;;;;;;;6387162;22;8741;-77
2021/12/01 18:46:11;;;;;;;;;121.60;121.60;;;;;;;;6415921;22;9378;-77
2021/12/01 18:48:36;;;;;;;;;129.25;129.25;;;;;;;;6387036;22;8833;-77
2021/12/01 18:51:02;;;;;;;;;121.20;121.20;;;;;;;;6415783;22;8783;-77
2021/12/01 18:53:27;;;;;;;;;127.40;125.60;;;;;;;;6414932;22;8772;-77
2021/12/01 18:55:53;;;;;;;;;99.50;99.50;;;;;;;;6416107;22;8835;-76
2021/12/01 18:58:18;;;;;;;;;95.20;92.40;;;;;;;;6387160;22;8777;-77
2021/12/01 19:00:43;;;;;;;;;85.00;73.75;;;;;;;;6386560;22;8788;-77
2021/12/01 19:03:09;;;;;;;;;89.50;80.75;;;;;;;;6386394;22;9601;-78
2021/12/01 19:05:36;;;;;;;;;105.20;105.20;;;;;;;;6414919;22;8799;-76
2021/12/01 19:08:01;;;;;;;;;88.00;77.80;;;;;;;;6415628;22;8725;-76
2021/12/01 19:10:28;;;;;;;;;84.00;71.50;;;;;;;;6386103;22;8757;-77
2021/12/01 19:12:54;;;;;;;;;87.40;79.60;;;;;;;;6386067;22;8763;-77
2021/12/01 19:15:20;;;;;;;;;105.00;105.00;;;;;;;;6415407;22;8778;-77
2021/12/01 19:17:46;;;;;;;;;90.00;84.20;;;;;;;;6415685;22;9634;-77
2021/12/01 19:20:11;;;;;;;;;102.75;101.25;;;;;;;;6415374;22;11514;-77
2021/12/01 19:22:37;;;;;;;;;63.50;53.50;;;;;;;;6415163;22;8736;-76
2021/12/01 19:25:04;;;;;;;;;77.60;64.00;;;;;;;;6415230;22;8776;-77
2021/12/01 19:27:30;;;;;;;;;81.75;67.75;;;;;;;;6415037;22;9635;-77
2021/12/01 19:29:56;;;;;;;;;86.60;75.40;;;;;;;;6415457;22;8837;-77
2021/12/01 19:32:21;;;;;;;;;73.20;60.00;;;;;;;;6414996;22;8769;-77
2021/12/01 19:34:46;;;;;;;;;84.50;74.00;;;;;;;;6415694;22;9168;-77
2021/12/01 19:37:12;;;;;;;;;85.00;74.00;;;;;;;;6414818;22;8768;-77
2021/12/01 19:39:38;;;;;;;;;94.33;90.67;;;;;;;;6414915;22;8761;-79
2021/12/01 19:42:05;;;;;;;;;83.20;71.00;;;;;;;;6415816;22;8745;-78
2021/12/01 19:44:30;;;;;;;;;80.80;67.40;;;;;;;;6415338;22;9455;-79
2021/12/01 19:46:56;;;;;;;;;85.00;71.80;;;;;;;;6415543;22;8776;-78
2021/12/01 19:49:21;;;;;;;;;86.80;75.80;;;;;;;;6416561;22;8839;-78
2021/12/01 19:51:47;;;;;;;;;93.40;89.80;;;;;;;;6386885;22;8849;-79
2021/12/01 19:54:14;;;;;;;;;148.60;148.60;;;;;;;;6416101;22;8749;-78
2021/12/01 19:56:39;;;;;;;;;121.00;121.00;;;;;;;;6416449;22;8779;-78
2021/12/01 19:59:04;;;;;;;;;91.00;83.33;;;;;;;;6417203;22;8780;-78
2021/12/01 20:01:30;;;;;;;;;86.25;76.25;;;;;;;;6387015;22;9976;-80
2021/12/01 20:03:55;;;;;;;;;125.20;123.40;;;;;;;;6417103;22;8935;-78
2021/12/01 20:06:22;;;;;;;;;105.75;104.75;;;;;;;;6415800;22;8788;-80
2021/12/01 20:08:52;;;;;;;;;62.60;53.20;;;;;;;;6416490;22;8777;-78
2021/12/01 20:11:18;;;;;;;;;109.33;108.33;;;;;;;;6387416;22;8841;-78
2021/12/01 20:14:21;;;;;;;;;168.00;166.80;;;;;;;;6416013;22;8745;-78
2021/12/01 20:16:56;;;;;;;;;124.80;123.80;;;;;;;;6387934;22;8717;-78
2021/12/01 20:19:22;;;;;;;;;143.40;142.60;;;;;;;;6415901;22;8721;-78
2021/12/01 20:21:48;;;;;;;;;181.40;181.00;;;;;;;;6386544;22;11539;-78
2021/12/01 20:24:13;;;;;;;;;126.50;125.00;;;;;;;;6415884;22;8753;-78
2021/12/01 20:26:39;;;;;;;;;174.60;174.60;;;;;;;;6387093;22;8799;-78
2021/12/01 20:29:08;;;;;;;;;144.75;144.75;;;;;;;;6416758;22;8752;-80
2021/12/01 20:31:34;;;;;;;;;151.83;151.83;;;;;;;;6387079;22;8996;-80
2021/12/01 20:34:01;;;;;;;;;146.40;146.40;;;;;;;;6416569;22;8681;-80
2021/12/01 20:36:27;;;;;;;;;176.50;175.67;;;;;;;;6389730;22;8856;-80
2021/12/01 20:39:02;;;;;;;;;164.20;164.20;;;;;;;;6416202;22;8741;-78
2021/12/01 20:41:32;;;;;;;;;192.60;191.60;;;;;;;;6415645;22;9643;-78
2021/12/01 20:44:01;;;;;;;;;162.00;159.80;;;;;;;;6416056;22;8729;-80
2021/12/01 20:46:40;;;;;;;;;188.83;187.33;;;;;;;;6414961;22;9696;-80
2021/12/01 20:54:41;;;;;;;;;207.67;205.00;;;;;;;;6414389;22;8737;-79
2021/12/01 21:02:30;;;;;;;;;174.40;173.00;;;;;;;;6415693;22;11666;-80
2021/12/01 21:04:56;;;;;;;;;186.60;186.00;;;;;;;;6415885;22;8792;-80
2021/12/01 21:07:22;;;;;;;;;162.40;162.20;;;;;;;;6386500;22;9511;-78
2021/12/01 21:09:52;;;;;;;;;184.00;184.00;;;;;;;;6415562;22;8781;-76
2021/12/01 21:12:25;;;;;;;;;197.40;196.20;;;;;;;;6386761;22;8753;-80
2021/12/01 21:15:08;;;;;;;;;;;;;;;;;;;;;
2021/12/01 21:18:36;;;;;;;;;;;;;;;;;;;;;
2021/12/01 21:23:48;;;;;;;;;158.17;157.67;;;;;;;;6327808;22;8756;-78
2021/12/01 21:26:19;;;;;;;;;173.80;173.20;;;;;;;;6416033;22;8775;-78
2021/12/01 21:28:50;;;;;;;;;170.40;170.00;;;;;;;;6414860;22;8783;-78
2021/12/01 21:31:20;;;;;;;;;155.20;154.20;;;;;;;;6384296;22;8753;-78
2021/12/01 21:36:52;;;;;;;;;175.40;175.40;;;;;;;;6316111;22;8787;-78
2021/12/01 21:39:30;;;;;;;;;156.00;153.20;;;;;;;;6413341;22;8733;-78
2021/12/01 21:42:10;;;;;;;;;154.40;152.20;;;;;;;;6415742;22;8743;-78
2021/12/01 21:47:50;;;;;;;;;130.33;128.83;;;;;;;;6402970;22;8807;-78
2021/12/01 21:50:15;;;;;;;;;117.00;116.20;;;;;;;;6387178;22;8742;-80
2021/12/01 21:52:46;;;;;;;;;119.50;119.50;;;;;;;;6387045;22;10829;-80
2021/12/01 21:55:12;;;;;;;;;124.60;124.40;;;;;;;;6415855;22;8689;-80
2021/12/01 21:57:41;;;;;;;;;116.75;116.50;;;;;;;;6415496;22;8819;-81
2021/12/01 22:00:09;;;;;;;;;119.00;119.00;;;;;;;;6416578;22;8870;-79